sensor_id;sensor_type;location;lat;lon;timestamp;P1;durP1;ratioP1;P2;durP2;ratioP2
34196;SDS011;36594;45.192;5.722;2023-01-19T00:00:08;0.80;;;0.80;;
34196;SDS011;36594;45.192;5.722;2023-01-19T00:02:58;1.70;;;0.50;;
34196;SDS011;36594;45.192;5.722;2023-01-19T00:05:46;0.70;;;0.70;;
34196;SDS011;36594;45.192;5.722;2023-01-19T00:08:35;0.57;;;0.57;;
34196;SDS011;36594;45.192;5.722;2023-01-19T00:11:24;0.78;;;0.78;;
34196;SDS011;36594;45.192;5.722;2023-01-19T00:14:13;0.65;;;0.65;;
34196;SDS011;36594;45.192;5.722;2023-01-19T00:17:01;0.60;;;0.60;;
34196;SDS011;36594;45.192;5.722;2023-01-19T00:19:50;0.62;;;0.62;;
34196;SDS011;36594;45.192;5.722;2023-01-19T00:22:38;0.77;;;0.77;;
34196;SDS011;36594;45.192;5.722;2023-01-19T00:25:26;0.78;;;0.53;;
34196;SDS011;36594;45.192;5.722;2023-01-19T00:28:15;0.70;;;0.70;;
34196;SDS011;36594;45.192;5.722;2023-01-19T00:31:05;1.00;;;0.60;;
34196;SDS011;36594;45.192;5.722;2023-01-19T00:33:54;0.90;;;0.60;;
34196;SDS011;36594;45.192;5.722;2023-01-19T00:36:43;0.60;;;0.60;;
34196;SDS011;36594;45.192;5.722;2023-01-19T00:39:31;0.60;;;0.60;;
34196;SDS011;36594;45.192;5.722;2023-01-19T00:42:19;0.60;;;0.60;;
34196;SDS011;36594;45.192;5.722;2023-01-19T00:45:26;0.60;;;0.60;;
34196;SDS011;36594;45.192;5.722;2023-01-19T00:48:14;0.70;;;0.70;;
34196;SDS011;36594;45.192;5.722;2023-01-19T00:51:03;0.65;;;0.65;;
34196;SDS011;36594;45.192;5.722;2023-01-19T00:53:51;0.62;;;0.62;;
34196;SDS011;36594;45.192;5.722;2023-01-19T00:56:39;0.60;;;0.60;;
34196;SDS011;36594;45.192;5.722;2023-01-19T00:59:28;0.95;;;0.60;;
34196;SDS011;36594;45.192;5.722;2023-01-19T01:02:16;0.90;;;0.60;;
34196;SDS011;36594;45.192;5.722;2023-01-19T01:05:05;0.80;;;0.80;;
34196;SDS011;36594;45.192;5.722;2023-01-19T01:07:55;0.53;;;0.53;;
34196;SDS011;36594;45.192;5.722;2023-01-19T01:10:43;0.90;;;0.70;;
34196;SDS011;36594;45.192;5.722;2023-01-19T01:13:31;0.70;;;0.70;;
34196;SDS011;36594;45.192;5.722;2023-01-19T01:16:20;0.57;;;0.57;;
34196;SDS011;36594;45.192;5.722;2023-01-19T01:19:08;0.93;;;0.53;;
34196;SDS011;36594;45.192;5.722;2023-01-19T01:21:57;0.70;;;0.70;;
34196;SDS011;36594;45.192;5.722;2023-01-19T01:24:45;0.55;;;0.55;;
34196;SDS011;36594;45.192;5.722;2023-01-19T01:27:33;0.50;;;0.50;;
34196;SDS011;36594;45.192;5.722;2023-01-19T01:30:22;0.70;;;0.70;;
34196;SDS011;36594;45.192;5.722;2023-01-19T01:33:11;1.50;;;0.80;;
34196;SDS011;36594;45.192;5.722;2023-01-19T01:36:00;0.68;;;0.68;;
34196;SDS011;36594;45.192;5.722;2023-01-19T01:38:48;1.50;;;0.50;;
34196;SDS011;36594;45.192;5.722;2023-01-19T01:41:37;0.68;;;0.68;;
34196;SDS011;36594;45.192;5.722;2023-01-19T01:47:44;0.70;;;0.70;;
34196;SDS011;36594;45.192;5.722;2023-01-19T01:50:46;0.57;;;0.57;;
34196;SDS011;36594;45.192;5.722;2023-01-19T01:54:05;0.60;;;0.60;;
34196;SDS011;36594;45.192;5.722;2023-01-19T01:56:56;2.60;;;0.67;;
34196;SDS011;36594;45.192;5.722;2023-01-19T01:59:46;0.47;;;0.47;;
34196;SDS011;36594;45.192;5.722;2023-01-19T02:02:37;0.70;;;0.70;;
34196;SDS011;36594;45.192;5.722;2023-01-19T02:05:39;0.60;;;0.60;;
34196;SDS011;36594;45.192;5.722;2023-01-19T02:08:38;0.80;;;0.80;;
34196;SDS011;36594;45.192;5.722;2023-01-19T02:11:41;1.30;;;0.65;;
34196;SDS011;36594;45.192;5.722;2023-01-19T02:14:47;1.00;;;0.70;;
34196;SDS011;36594;45.192;5.722;2023-01-19T02:17:36;0.72;;;0.70;;
34196;SDS011;36594;45.192;5.722;2023-01-19T02:20:25;0.50;;;0.50;;
34196;SDS011;36594;45.192;5.722;2023-01-19T02:23:19;0.70;;;0.70;;
34196;SDS011;36594;45.192;5.722;2023-01-19T02:26:08;0.70;;;0.70;;
34196;SDS011;36594;45.192;5.722;2023-01-19T02:29:03;0.60;;;0.60;;
34196;SDS011;36594;45.192;5.722;2023-01-19T02:31:53;0.60;;;0.60;;
34196;SDS011;36594;45.192;5.722;2023-01-19T02:34:42;0.50;;;0.50;;
34196;SDS011;36594;45.192;5.722;2023-01-19T02:37:31;2.00;;;0.80;;
34196;SDS011;36594;45.192;5.722;2023-01-19T02:40:23;1.20;;;0.60;;
34196;SDS011;36594;45.192;5.722;2023-01-19T02:43:13;0.57;;;0.57;;
34196;SDS011;36594;45.192;5.722;2023-01-19T02:46:04;0.57;;;0.57;;
34196;SDS011;36594;45.192;5.722;2023-01-19T02:48:57;0.50;;;0.50;;
34196;SDS011;36594;45.192;5.722;2023-01-19T02:51:47;0.70;;;0.62;;
34196;SDS011;36594;45.192;5.722;2023-01-19T03:04:28;0.50;;;0.50;;
34196;SDS011;36594;45.192;5.722;2023-01-19T03:19:35;0.57;;;0.57;;
34196;SDS011;36594;45.192;5.722;2023-01-19T03:22:26;0.70;;;0.60;;
34196;SDS011;36594;45.192;5.722;2023-01-19T03:25:16;1.60;;;0.80;;
34196;SDS011;36594;45.192;5.722;2023-01-19T03:28:08;0.57;;;0.57;;
34196;SDS011;36594;45.192;5.722;2023-01-19T03:30:59;0.80;;;0.80;;
34196;SDS011;36594;45.192;5.722;2023-01-19T03:33:52;0.65;;;0.65;;
34196;SDS011;36594;45.192;5.722;2023-01-19T03:36:44;1.50;;;0.80;;
34196;SDS011;36594;45.192;5.722;2023-01-19T03:39:36;0.75;;;0.75;;
34196;SDS011;36594;45.192;5.722;2023-01-19T03:42:24;1.35;;;0.72;;
34196;SDS011;36594;45.192;5.722;2023-01-19T03:45:15;0.60;;;0.60;;
34196;SDS011;36594;45.192;5.722;2023-01-19T03:48:04;0.60;;;0.60;;
34196;SDS011;36594;45.192;5.722;2023-01-19T03:50:54;1.50;;;0.80;;
34196;SDS011;36594;45.192;5.722;2023-01-19T03:53:43;0.72;;;0.72;;
34196;SDS011;36594;45.192;5.722;2023-01-19T03:56:31;0.70;;;0.70;;
34196;SDS011;36594;45.192;5.722;2023-01-19T03:59:20;0.60;;;0.60;;
34196;SDS011;36594;45.192;5.722;2023-01-19T04:02:09;1.30;;;0.78;;
34196;SDS011;36594;45.192;5.722;2023-01-19T04:04:57;1.30;;;0.75;;
34196;SDS011;36594;45.192;5.722;2023-01-19T04:07:47;0.90;;;0.68;;
34196;SDS011;36594;45.192;5.722;2023-01-19T04:10:36;0.68;;;0.68;;
34196;SDS011;36594;45.192;5.722;2023-01-19T04:13:25;0.80;;;0.70;;
34196;SDS011;36594;45.192;5.722;2023-01-19T04:16:15;0.78;;;0.78;;
34196;SDS011;36594;45.192;5.722;2023-01-19T04:19:05;1.77;;;0.60;;
34196;SDS011;36594;45.192;5.722;2023-01-19T04:21:54;0.80;;;0.60;;
34196;SDS011;36594;45.192;5.722;2023-01-19T04:24:42;1.72;;;0.80;;
34196;SDS011;36594;45.192;5.722;2023-01-19T04:27:30;0.68;;;0.68;;
34196;SDS011;36594;45.192;5.722;2023-01-19T04:30:18;0.50;;;0.50;;
34196;SDS011;36594;45.192;5.722;2023-01-19T04:33:08;1.05;;;0.60;;
34196;SDS011;36594;45.192;5.722;2023-01-19T04:35:56;0.50;;;0.50;;
34196;SDS011;36594;45.192;5.722;2023-01-19T04:38:45;0.73;;;0.60;;
34196;SDS011;36594;45.192;5.722;2023-01-19T04:41:34;0.60;;;0.60;;
34196;SDS011;36594;45.192;5.722;2023-01-19T04:44:23;1.17;;;0.70;;
34196;SDS011;36594;45.192;5.722;2023-01-19T04:47:11;0.80;;;0.72;;
34196;SDS011;36594;45.192;5.722;2023-01-19T04:50:01;0.75;;;0.72;;
34196;SDS011;36594;45.192;5.722;2023-01-19T04:52:51;0.60;;;0.60;;
34196;SDS011;36594;45.192;5.722;2023-01-19T04:55:39;0.53;;;0.53;;
34196;SDS011;36594;45.192;5.722;2023-01-19T04:58:27;1.45;;;0.80;;
34196;SDS011;36594;45.192;5.722;2023-01-19T05:01:16;0.60;;;0.60;;
34196;SDS011;36594;45.192;5.722;2023-01-19T05:04:05;0.65;;;0.65;;
34196;SDS011;36594;45.192;5.722;2023-01-19T05:06:54;0.70;;;0.70;;
34196;SDS011;36594;45.192;5.722;2023-01-19T05:09:43;0.60;;;0.60;;
34196;SDS011;36594;45.192;5.722;2023-01-19T05:12:32;1.50;;;0.70;;
34196;SDS011;36594;45.192;5.722;2023-01-19T05:15:21;0.60;;;0.60;;
34196;SDS011;36594;45.192;5.722;2023-01-19T05:18:10;0.70;;;0.70;;
34196;SDS011;36594;45.192;5.722;2023-01-19T05:20:58;0.50;;;0.50;;
34196;SDS011;36594;45.192;5.722;2023-01-19T05:23:47;0.60;;;0.60;;
34196;SDS011;36594;45.192;5.722;2023-01-19T05:26:35;0.80;;;0.70;;
34196;SDS011;36594;45.192;5.722;2023-01-19T05:29:23;0.70;;;0.50;;
34196;SDS011;36594;45.192;5.722;2023-01-19T05:32:12;0.60;;;0.60;;
34196;SDS011;36594;45.192;5.722;2023-01-19T05:35:00;0.60;;;0.60;;
34196;SDS011;36594;45.192;5.722;2023-01-19T05:37:48;0.75;;;0.72;;
34196;SDS011;36594;45.192;5.722;2023-01-19T05:40:36;0.80;;;0.80;;
34196;SDS011;36594;45.192;5.722;2023-01-19T05:43:25;0.65;;;0.60;;
34196;SDS011;36594;45.192;5.722;2023-01-19T05:46:13;1.80;;;0.70;;
34196;SDS011;36594;45.192;5.722;2023-01-19T05:49:02;0.50;;;0.50;;
34196;SDS011;36594;45.192;5.722;2023-01-19T05:51:50;0.60;;;0.60;;
34196;SDS011;36594;45.192;5.722;2023-01-19T05:54:39;0.68;;;0.68;;
34196;SDS011;36594;45.192;5.722;2023-01-19T05:57:27;0.68;;;0.60;;
34196;SDS011;36594;45.192;5.722;2023-01-19T06:00:15;0.53;;;0.53;;
34196;SDS011;36594;45.192;5.722;2023-01-19T06:03:04;0.70;;;0.70;;
34196;SDS011;36594;45.192;5.722;2023-01-19T06:05:55;0.45;;;0.45;;
34196;SDS011;36594;45.192;5.722;2023-01-19T06:08:44;0.50;;;0.50;;
34196;SDS011;36594;45.192;5.722;2023-01-19T06:11:33;0.90;;;0.50;;
34196;SDS011;36594;45.192;5.722;2023-01-19T06:14:21;1.27;;;0.50;;
34196;SDS011;36594;45.192;5.722;2023-01-19T06:17:10;0.70;;;0.65;;
34196;SDS011;36594;45.192;5.722;2023-01-19T06:19:59;0.75;;;0.62;;
34196;SDS011;36594;45.192;5.722;2023-01-19T06:22:47;0.80;;;0.70;;
34196;SDS011;36594;45.192;5.722;2023-01-19T06:25:35;1.10;;;0.80;;
34196;SDS011;36594;45.192;5.722;2023-01-19T06:28:24;0.50;;;0.50;;
34196;SDS011;36594;45.192;5.722;2023-01-19T06:31:13;0.50;;;0.50;;
34196;SDS011;36594;45.192;5.722;2023-01-19T06:34:02;0.60;;;0.60;;
34196;SDS011;36594;45.192;5.722;2023-01-19T06:36:50;0.68;;;0.68;;
34196;SDS011;36594;45.192;5.722;2023-01-19T06:39:39;0.60;;;0.60;;
34196;SDS011;36594;45.192;5.722;2023-01-19T06:42:27;0.68;;;0.68;;
34196;SDS011;36594;45.192;5.722;2023-01-19T06:45:16;0.60;;;0.60;;
34196;SDS011;36594;45.192;5.722;2023-01-19T06:48:04;0.70;;;0.70;;
34196;SDS011;36594;45.192;5.722;2023-01-19T06:50:53;1.20;;;0.90;;
34196;SDS011;36594;45.192;5.722;2023-01-19T06:53:41;1.30;;;0.75;;
34196;SDS011;36594;45.192;5.722;2023-01-19T06:56:31;0.90;;;0.70;;
34196;SDS011;36594;45.192;5.722;2023-01-19T06:59:19;0.55;;;0.55;;
34196;SDS011;36594;45.192;5.722;2023-01-19T07:02:08;2.00;;;0.80;;
34196;SDS011;36594;45.192;5.722;2023-01-19T07:05:01;0.70;;;0.70;;
34196;SDS011;36594;45.192;5.722;2023-01-19T07:07:52;0.65;;;0.60;;
34196;SDS011;36594;45.192;5.722;2023-01-19T07:10:41;0.70;;;0.60;;
34196;SDS011;36594;45.192;5.722;2023-01-19T07:13:29;0.60;;;0.60;;
34196;SDS011;36594;45.192;5.722;2023-01-19T07:16:18;0.70;;;0.70;;
34196;SDS011;36594;45.192;5.722;2023-01-19T07:19:06;0.70;;;0.53;;
34196;SDS011;36594;45.192;5.722;2023-01-19T07:21:56;0.60;;;0.60;;
34196;SDS011;36594;45.192;5.722;2023-01-19T07:24:45;0.90;;;0.60;;
34196;SDS011;36594;45.192;5.722;2023-01-19T07:27:33;0.47;;;0.47;;
34196;SDS011;36594;45.192;5.722;2023-01-19T07:30:22;0.50;;;0.50;;
34196;SDS011;36594;45.192;5.722;2023-01-19T07:33:10;0.70;;;0.70;;
34196;SDS011;36594;45.192;5.722;2023-01-19T07:35:59;0.75;;;0.75;;
34196;SDS011;36594;45.192;5.722;2023-01-19T07:38:47;0.78;;;0.65;;
34196;SDS011;36594;45.192;5.722;2023-01-19T07:41:36;1.00;;;0.80;;
34196;SDS011;36594;45.192;5.722;2023-01-19T07:44:26;0.60;;;0.60;;
34196;SDS011;36594;45.192;5.722;2023-01-19T07:47:14;0.50;;;0.50;;
34196;SDS011;36594;45.192;5.722;2023-01-19T07:50:03;1.13;;;0.67;;
34196;SDS011;36594;45.192;5.722;2023-01-19T07:52:52;1.73;;;0.80;;
34196;SDS011;36594;45.192;5.722;2023-01-19T07:55:41;0.90;;;0.55;;
34196;SDS011;36594;45.192;5.722;2023-01-19T07:58:30;0.75;;;0.72;;
34196;SDS011;36594;45.192;5.722;2023-01-19T08:01:18;1.00;;;0.62;;
34196;SDS011;36594;45.192;5.722;2023-01-19T08:04:07;1.05;;;0.62;;
34196;SDS011;36594;45.192;5.722;2023-01-19T08:06:56;1.80;;;0.80;;
34196;SDS011;36594;45.192;5.722;2023-01-19T08:09:45;1.07;;;0.70;;
34196;SDS011;36594;45.192;5.722;2023-01-19T08:12:33;0.60;;;0.60;;
34196;SDS011;36594;45.192;5.722;2023-01-19T08:15:22;1.77;;;0.60;;
34196;SDS011;36594;45.192;5.722;2023-01-19T08:18:11;1.62;;;0.78;;
34196;SDS011;36594;45.192;5.722;2023-01-19T08:21:01;1.00;;;0.90;;
34196;SDS011;36594;45.192;5.722;2023-01-19T08:23:51;0.93;;;0.70;;
34196;SDS011;36594;45.192;5.722;2023-01-19T08:26:40;0.55;;;0.55;;
34196;SDS011;36594;45.192;5.722;2023-01-19T08:29:29;2.20;;;0.65;;
34196;SDS011;36594;45.192;5.722;2023-01-19T08:32:19;0.70;;;0.70;;
34196;SDS011;36594;45.192;5.722;2023-01-19T08:35:07;1.00;;;0.72;;
34196;SDS011;36594;45.192;5.722;2023-01-19T08:37:56;0.40;;;0.40;;
34196;SDS011;36594;45.192;5.722;2023-01-19T08:40:47;0.68;;;0.65;;
34196;SDS011;36594;45.192;5.722;2023-01-19T08:43:36;1.57;;;0.78;;
34196;SDS011;36594;45.192;5.722;2023-01-19T08:46:24;1.60;;;0.78;;
34196;SDS011;36594;45.192;5.722;2023-01-19T08:49:13;0.55;;;0.47;;
34196;SDS011;36594;45.192;5.722;2023-01-19T08:52:01;0.80;;;0.67;;
34196;SDS011;36594;45.192;5.722;2023-01-19T08:54:50;1.42;;;0.60;;
34196;SDS011;36594;45.192;5.722;2023-01-19T08:57:38;0.60;;;0.60;;
34196;SDS011;36594;45.192;5.722;2023-01-19T09:00:27;0.60;;;0.60;;
34196;SDS011;36594;45.192;5.722;2023-01-19T09:03:21;0.90;;;0.70;;
34196;SDS011;36594;45.192;5.722;2023-01-19T09:06:10;0.57;;;0.57;;
34196;SDS011;36594;45.192;5.722;2023-01-19T09:09:02;0.70;;;0.70;;
34196;SDS011;36594;45.192;5.722;2023-01-19T09:11:52;1.50;;;0.80;;
34196;SDS011;36594;45.192;5.722;2023-01-19T09:14:41;0.50;;;0.50;;
34196;SDS011;36594;45.192;5.722;2023-01-19T09:17:29;0.60;;;0.60;;
34196;SDS011;36594;45.192;5.722;2023-01-19T09:20:18;0.60;;;0.40;;
34196;SDS011;36594;45.192;5.722;2023-01-19T09:23:06;0.85;;;0.65;;
34196;SDS011;36594;45.192;5.722;2023-01-19T09:25:57;0.60;;;0.60;;
34196;SDS011;36594;45.192;5.722;2023-01-19T09:28:47;1.60;;;0.60;;
34196;SDS011;36594;45.192;5.722;2023-01-19T09:31:36;0.50;;;0.50;;
34196;SDS011;36594;45.192;5.722;2023-01-19T09:34:25;0.50;;;0.50;;
34196;SDS011;36594;45.192;5.722;2023-01-19T09:37:13;1.52;;;1.40;;
34196;SDS011;36594;45.192;5.722;2023-01-19T09:40:03;0.90;;;0.90;;
34196;SDS011;36594;45.192;5.722;2023-01-19T09:42:55;1.32;;;1.00;;
34196;SDS011;36594;45.192;5.722;2023-01-19T09:45:51;1.00;;;1.00;;
34196;SDS011;36594;45.192;5.722;2023-01-19T09:48:55;1.50;;;1.20;;
34196;SDS011;36594;45.192;5.722;2023-01-19T09:51:48;1.05;;;1.00;;
34196;SDS011;36594;45.192;5.722;2023-01-19T09:57:34;2.00;;;1.02;;
34196;SDS011;36594;45.192;5.722;2023-01-19T10:00:23;2.02;;;1.30;;
34196;SDS011;36594;45.192;5.722;2023-01-19T10:03:14;0.90;;;0.90;;
34196;SDS011;36594;45.192;5.722;2023-01-19T10:06:03;1.37;;;1.00;;
34196;SDS011;36594;45.192;5.722;2023-01-19T10:08:57;0.95;;;0.95;;
34196;SDS011;36594;45.192;5.722;2023-01-19T10:11:53;1.90;;;1.12;;
34196;SDS011;36594;45.192;5.722;2023-01-19T10:18:19;0.85;;;0.82;;
34196;SDS011;36594;45.192;5.722;2023-01-19T10:21:18;1.25;;;1.00;;
34196;SDS011;36594;45.192;5.722;2023-01-19T10:27:09;1.20;;;1.20;;
34196;SDS011;36594;45.192;5.722;2023-01-19T10:30:06;0.80;;;0.80;;
34196;SDS011;36594;45.192;5.722;2023-01-19T10:32:55;1.20;;;0.90;;
34196;SDS011;36594;45.192;5.722;2023-01-19T10:35:44;1.42;;;0.90;;
34196;SDS011;36594;45.192;5.722;2023-01-19T10:38:34;1.00;;;1.00;;
34196;SDS011;36594;45.192;5.722;2023-01-19T10:41:29;1.10;;;0.90;;
34196;SDS011;36594;45.192;5.722;2023-01-19T10:44:21;1.00;;;1.00;;
34196;SDS011;36594;45.192;5.722;2023-01-19T10:47:12;0.85;;;0.80;;
34196;SDS011;36594;45.192;5.722;2023-01-19T10:50:05;2.20;;;1.00;;
34196;SDS011;36594;45.192;5.722;2023-01-19T10:53:20;1.05;;;1.00;;
34196;SDS011;36594;45.192;5.722;2023-01-19T10:56:08;2.62;;;1.07;;
34196;SDS011;36594;45.192;5.722;2023-01-19T10:59:05;1.70;;;1.02;;
34196;SDS011;36594;45.192;5.722;2023-01-19T11:02:31;0.90;;;0.90;;
34196;SDS011;36594;45.192;5.722;2023-01-19T11:05:28;0.80;;;0.80;;
34196;SDS011;36594;45.192;5.722;2023-01-19T11:08:27;1.55;;;1.10;;
34196;SDS011;36594;45.192;5.722;2023-01-19T11:11:12;1.20;;;1.15;;
34196;SDS011;36594;45.192;5.722;2023-01-19T11:14:07;1.30;;;1.20;;
34196;SDS011;36594;45.192;5.722;2023-01-19T11:16:59;1.73;;;1.40;;
34196;SDS011;36594;45.192;5.722;2023-01-19T11:19:51;1.10;;;0.98;;
34196;SDS011;36594;45.192;5.722;2023-01-19T11:22:42;1.30;;;1.20;;
34196;SDS011;36594;45.192;5.722;2023-01-19T11:25:31;1.30;;;1.00;;
34196;SDS011;36594;45.192;5.722;2023-01-19T11:31:36;1.20;;;1.10;;
34196;SDS011;36594;45.192;5.722;2023-01-19T11:40:16;2.00;;;1.55;;
34196;SDS011;36594;45.192;5.722;2023-01-19T11:43:04;1.60;;;1.50;;
34196;SDS011;36594;45.192;5.722;2023-01-19T11:45:54;1.70;;;1.60;;
34196;SDS011;36594;45.192;5.722;2023-01-19T11:48:46;1.77;;;1.67;;
34196;SDS011;36594;45.192;5.722;2023-01-19T11:51:48;3.50;;;1.80;;
34196;SDS011;36594;45.192;5.722;2023-01-19T11:54:45;2.30;;;2.05;;
34196;SDS011;36594;45.192;5.722;2023-01-19T11:57:32;1.80;;;1.70;;
34196;SDS011;36594;45.192;5.722;2023-01-19T12:00:31;2.22;;;2.05;;
34196;SDS011;36594;45.192;5.722;2023-01-19T12:03:29;2.33;;;2.10;;
34196;SDS011;36594;45.192;5.722;2023-01-19T12:06:20;2.10;;;2.00;;
34196;SDS011;36594;45.192;5.722;2023-01-19T12:09:11;3.10;;;2.10;;
34196;SDS011;36594;45.192;5.722;2023-01-19T12:12:02;3.60;;;1.90;;
34196;SDS011;36594;45.192;5.722;2023-01-19T12:15:05;2.17;;;1.98;;
34196;SDS011;36594;45.192;5.722;2023-01-19T12:17:53;2.00;;;1.90;;
34196;SDS011;36594;45.192;5.722;2023-01-19T12:20:46;1.90;;;1.80;;
34196;SDS011;36594;45.192;5.722;2023-01-19T12:23:43;2.35;;;2.20;;
34196;SDS011;36594;45.192;5.722;2023-01-19T12:29:41;2.08;;;1.98;;
34196;SDS011;36594;45.192;5.722;2023-01-19T12:32:32;2.15;;;1.90;;
34196;SDS011;36594;45.192;5.722;2023-01-19T12:41:40;2.62;;;2.42;;
34196;SDS011;36594;45.192;5.722;2023-01-19T12:44:31;3.12;;;2.20;;
34196;SDS011;36594;45.192;5.722;2023-01-19T12:47:20;2.47;;;1.98;;
34196;SDS011;36594;45.192;5.722;2023-01-19T12:50:12;2.40;;;2.20;;
34196;SDS011;36594;45.192;5.722;2023-01-19T12:53:01;2.43;;;2.23;;
34196;SDS011;36594;45.192;5.722;2023-01-19T12:55:57;6.03;;;2.20;;
34196;SDS011;36594;45.192;5.722;2023-01-19T12:58:48;2.50;;;2.30;;
34196;SDS011;36594;45.192;5.722;2023-01-19T13:01:37;2.45;;;2.20;;
34196;SDS011;36594;45.192;5.722;2023-01-19T13:04:30;2.77;;;2.00;;
34196;SDS011;36594;45.192;5.722;2023-01-19T13:07:19;3.37;;;2.25;;
34196;SDS011;36594;45.192;5.722;2023-01-19T13:13:36;2.37;;;2.08;;
34196;SDS011;36594;45.192;5.722;2023-01-19T13:19:20;2.90;;;2.02;;
34196;SDS011;36594;45.192;5.722;2023-01-19T13:25:37;2.30;;;2.00;;
34196;SDS011;36594;45.192;5.722;2023-01-19T13:28:29;3.70;;;2.20;;
34196;SDS011;36594;45.192;5.722;2023-01-19T13:31:19;4.22;;;2.22;;
34196;SDS011;36594;45.192;5.722;2023-01-19T13:34:10;3.52;;;2.05;;
34196;SDS011;36594;45.192;5.722;2023-01-19T13:37:00;2.33;;;1.82;;
34196;SDS011;36594;45.192;5.722;2023-01-19T13:39:51;2.52;;;2.10;;
34196;SDS011;36594;45.192;5.722;2023-01-19T13:42:41;2.27;;;2.08;;
34196;SDS011;36594;45.192;5.722;2023-01-19T13:45:31;2.62;;;2.02;;
34196;SDS011;36594;45.192;5.722;2023-01-19T13:48:23;3.40;;;2.15;;
34196;SDS011;36594;45.192;5.722;2023-01-19T13:51:16;2.27;;;1.85;;
34196;SDS011;36594;45.192;5.722;2023-01-19T13:54:11;2.10;;;1.90;;
34196;SDS011;36594;45.192;5.722;2023-01-19T13:56:56;3.83;;;2.00;;
34196;SDS011;36594;45.192;5.722;2023-01-19T13:59:44;2.40;;;2.20;;
34196;SDS011;36594;45.192;5.722;2023-01-19T14:02:34;3.08;;;2.02;;
34196;SDS011;36594;45.192;5.722;2023-01-19T14:05:27;2.77;;;1.87;;
34196;SDS011;36594;45.192;5.722;2023-01-19T14:08:20;3.20;;;1.90;;
34196;SDS011;36594;45.192;5.722;2023-01-19T14:11:11;3.05;;;1.87;;
34196;SDS011;36594;45.192;5.722;2023-01-19T14:14:01;2.10;;;1.67;;
34196;SDS011;36594;45.192;5.722;2023-01-19T14:16:49;2.05;;;1.85;;
34196;SDS011;36594;45.192;5.722;2023-01-19T14:19:52;1.92;;;1.72;;
34196;SDS011;36594;45.192;5.722;2023-01-19T14:22:44;2.65;;;1.65;;
34196;SDS011;36594;45.192;5.722;2023-01-19T14:25:35;4.10;;;1.70;;
34196;SDS011;36594;45.192;5.722;2023-01-19T14:31:24;1.72;;;1.62;;
34196;SDS011;36594;45.192;5.722;2023-01-19T14:37:26;2.12;;;1.80;;
34196;SDS011;36594;45.192;5.722;2023-01-19T14:40:18;2.17;;;1.60;;
34196;SDS011;36594;45.192;5.722;2023-01-19T14:43:09;1.98;;;1.87;;
34196;SDS011;36594;45.192;5.722;2023-01-19T14:45:58;1.83;;;1.70;;
34196;SDS011;36594;45.192;5.722;2023-01-19T14:48:47;1.98;;;1.52;;
34196;SDS011;36594;45.192;5.722;2023-01-19T14:51:38;2.00;;;1.80;;
34196;SDS011;36594;45.192;5.722;2023-01-19T14:54:32;2.23;;;1.70;;
34196;SDS011;36594;45.192;5.722;2023-01-19T14:57:18;2.10;;;1.90;;
34196;SDS011;36594;45.192;5.722;2023-01-19T15:00:14;2.80;;;1.82;;
34196;SDS011;36594;45.192;5.722;2023-01-19T15:03:06;1.98;;;1.67;;
34196;SDS011;36594;45.192;5.722;2023-01-19T15:05:58;2.05;;;1.50;;
34196;SDS011;36594;45.192;5.722;2023-01-19T15:08:47;1.60;;;1.50;;
34196;SDS011;36594;45.192;5.722;2023-01-19T15:11:38;1.50;;;1.40;;
34196;SDS011;36594;45.192;5.722;2023-01-19T15:14:28;1.40;;;1.30;;
34196;SDS011;36594;45.192;5.722;2023-01-19T15:17:18;1.55;;;1.45;;
34196;SDS011;36594;45.192;5.722;2023-01-19T15:20:18;1.77;;;1.50;;
34196;SDS011;36594;45.192;5.722;2023-01-19T15:23:09;2.60;;;1.42;;
34196;SDS011;36594;45.192;5.722;2023-01-19T15:25:58;1.50;;;1.40;;
34196;SDS011;36594;45.192;5.722;2023-01-19T15:28:49;1.72;;;1.60;;
34196;SDS011;36594;45.192;5.722;2023-01-19T15:31:38;1.60;;;1.40;;
34196;SDS011;36594;45.192;5.722;2023-01-19T15:34:26;2.77;;;1.40;;
34196;SDS011;36594;45.192;5.722;2023-01-19T15:37:15;2.08;;;1.60;;
34196;SDS011;36594;45.192;5.722;2023-01-19T15:40:04;1.50;;;1.40;;
34196;SDS011;36594;45.192;5.722;2023-01-19T15:42:53;1.90;;;1.40;;
34196;SDS011;36594;45.192;5.722;2023-01-19T15:45:55;2.17;;;1.55;;
34196;SDS011;36594;45.192;5.722;2023-01-19T15:48:45;1.82;;;1.40;;
34196;SDS011;36594;45.192;5.722;2023-01-19T15:51:34;1.25;;;1.25;;
34196;SDS011;36594;45.192;5.722;2023-01-19T15:54:23;2.33;;;1.50;;
34196;SDS011;36594;45.192;5.722;2023-01-19T15:57:12;1.37;;;1.32;;
34196;SDS011;36594;45.192;5.722;2023-01-19T16:00:01;1.80;;;1.30;;
34196;SDS011;36594;45.192;5.722;2023-01-19T16:02:52;1.45;;;1.37;;
34196;SDS011;36594;45.192;5.722;2023-01-19T16:05:40;1.50;;;1.40;;
34196;SDS011;36594;45.192;5.722;2023-01-19T16:08:29;2.37;;;1.37;;
34196;SDS011;36594;45.192;5.722;2023-01-19T16:11:17;1.40;;;1.30;;
34196;SDS011;36594;45.192;5.722;2023-01-19T16:14:05;1.90;;;1.35;;
34196;SDS011;36594;45.192;5.722;2023-01-19T16:16:54;2.20;;;1.60;;
34196;SDS011;36594;45.192;5.722;2023-01-19T16:19:43;1.35;;;1.20;;
34196;SDS011;36594;45.192;5.722;2023-01-19T16:22:31;1.70;;;1.30;;
34196;SDS011;36594;45.192;5.722;2023-01-19T16:25:19;1.90;;;1.47;;
34196;SDS011;36594;45.192;5.722;2023-01-19T16:28:08;1.55;;;1.45;;
34196;SDS011;36594;45.192;5.722;2023-01-19T16:30:57;1.32;;;1.22;;
34196;SDS011;36594;45.192;5.722;2023-01-19T16:33:46;1.47;;;1.37;;
34196;SDS011;36594;45.192;5.722;2023-01-19T16:36:35;1.32;;;1.20;;
34196;SDS011;36594;45.192;5.722;2023-01-19T16:39:28;1.30;;;1.20;;
34196;SDS011;36594;45.192;5.722;2023-01-19T16:42:17;1.50;;;1.40;;
34196;SDS011;36594;45.192;5.722;2023-01-19T16:45:05;1.98;;;1.20;;
34196;SDS011;36594;45.192;5.722;2023-01-19T16:47:54;1.10;;;1.10;;
34196;SDS011;36594;45.192;5.722;2023-01-19T16:50:42;1.37;;;1.27;;
34196;SDS011;36594;45.192;5.722;2023-01-19T16:53:32;2.08;;;1.37;;
34196;SDS011;36594;45.192;5.722;2023-01-19T16:56:21;1.20;;;1.20;;
34196;SDS011;36594;45.192;5.722;2023-01-19T16:59:11;1.40;;;1.30;;
34196;SDS011;36594;45.192;5.722;2023-01-19T17:02:00;1.37;;;1.10;;
34196;SDS011;36594;45.192;5.722;2023-01-19T17:04:48;1.60;;;1.10;;
34196;SDS011;36594;45.192;5.722;2023-01-19T17:07:36;1.50;;;1.40;;
34196;SDS011;36594;45.192;5.722;2023-01-19T17:10:25;1.20;;;1.20;;
34196;SDS011;36594;45.192;5.722;2023-01-19T17:13:14;1.40;;;1.30;;
34196;SDS011;36594;45.192;5.722;2023-01-19T17:16:02;1.45;;;1.20;;
34196;SDS011;36594;45.192;5.722;2023-01-19T17:18:52;1.40;;;1.30;;
34196;SDS011;36594;45.192;5.722;2023-01-19T17:21:43;1.30;;;1.20;;
34196;SDS011;36594;45.192;5.722;2023-01-19T17:24:34;1.30;;;1.30;;
34196;SDS011;36594;45.192;5.722;2023-01-19T17:27:23;1.40;;;1.30;;
34196;SDS011;36594;45.192;5.722;2023-01-19T17:30:12;1.30;;;1.20;;
34196;SDS011;36594;45.192;5.722;2023-01-19T17:33:01;1.20;;;1.10;;
34196;SDS011;36594;45.192;5.722;2023-01-19T17:35:49;1.50;;;1.40;;
34196;SDS011;36594;45.192;5.722;2023-01-19T17:38:38;1.30;;;1.20;;
34196;SDS011;36594;45.192;5.722;2023-01-19T17:41:27;1.27;;;1.17;;
34196;SDS011;36594;45.192;5.722;2023-01-19T17:44:17;1.20;;;1.20;;
34196;SDS011;36594;45.192;5.722;2023-01-19T17:47:06;1.12;;;1.10;;
34196;SDS011;36594;45.192;5.722;2023-01-19T17:49:54;1.37;;;1.30;;
34196;SDS011;36594;45.192;5.722;2023-01-19T17:52:42;1.37;;;1.27;;
34196;SDS011;36594;45.192;5.722;2023-01-19T17:55:31;1.32;;;1.22;;
34196;SDS011;36594;45.192;5.722;2023-01-19T17:58:20;1.37;;;1.30;;
34196;SDS011;36594;45.192;5.722;2023-01-19T18:01:09;1.40;;;1.30;;
34196;SDS011;36594;45.192;5.722;2023-01-19T18:03:59;1.27;;;1.17;;
34196;SDS011;36594;45.192;5.722;2023-01-19T18:06:48;1.40;;;1.30;;
34196;SDS011;36594;45.192;5.722;2023-01-19T18:09:36;0.90;;;0.90;;
34196;SDS011;36594;45.192;5.722;2023-01-19T18:12:24;1.45;;;1.30;;
34196;SDS011;36594;45.192;5.722;2023-01-19T18:15:12;1.02;;;1.02;;